メインページ
METAR-TAF:

METAR-TAF

空港 :

宮崎, 日本

宮崎空港

緯度: 31-52N, 経度: 131-27E, 海抜: 6m

現時点の気象観測

当レポートは45分前の23:00(UTC)に作成
西/北西の風 4kt、西から北/北西の間で変化する
気温 7°C
湿度 100%
気圧 1022 hPa
視程: 8000m
高度2000ftの雲はほとんどない
高度3000ftの雲は散在している
高度4000ftの千切れ雲あり
弱いにわか雨

METAR: RJFM 182300Z 30004KT 260V330 8000 -SHRA FEW020 SCT030 BKN040 07/07 Q1022

時間: 08:45 (23:45 UTC)

予報

当レポートは38分前の23:07(UTC)に作成
予報は19日の 00時(UTC)から 20日の 06時(UTC)まで有効
西/北西の風 4kt
視程: 7000m
高度700ftの雲はほとんどない
高度1000ftの雲は散在している
高度1500ftの千切れ雲あり
弱いにわか雨
19日の 00時(UTC)から 19日の 02時(UTC)まで徐々に
北/北東の風 12kt
19日の 03時(UTC)から 19日の 09時(UTC)まで一時的に
視程: 3000m
高度500ftの雲はほとんどない
高度800ftの千切れ雲あり
高度1500ftの千切れ雲あり
にわか雨, 靄
19日の 09時(UTC)から 19日の 18時(UTC)まで一時的に
視程: 4000m
高度500ftの雲はほとんどない
高度800ftの千切れ雲あり
高度1500ftの千切れ雲あり
弱いにわか雨, 靄
19日の 12時(UTC)から 19日の 15時(UTC)まで徐々に
西/北西の風 6kt
20日の 00時(UTC)から 20日の 03時(UTC)まで徐々に
北/北東の風 10kt

TAF: RJFM 182307Z 1900/2006 30004KT 7000 -SHRA FEW007 SCT010 BKN015 BECMG 1900/1902 03012KT TEMPO 1903/1909 3000 SHRA BR FEW005 BKN008 BKN015 TEMPO 1909/1918 4000 -SHRA BR FEW005 BKN008 BKN015 BECMG 1912/1915 30006KT BECMG 2000/2003 02010KT

4,000以上の空港の気象観測と天気予報(METAR報とTAF報)

利用可能な観測所は地図上に黄色い丸と赤い丸で示す。

丸の上にカーソルを重ねると観測所名を参照できる。

次にクリックすると気象観測と天気予報を参照できる。

マップの切り替え:黒色「×」印の緑ボタンをクリックして拡大、「-」印の緑ボタンをクリックして縮小、緑色の三角印をクリックして隣りの地図に切り替え


METAR-TAF: